YKX weather

Kirkland Lake Airport
Kirkland Lake, Ontario, Canada

Public forecast

Using degrees Celsius for public forecast. Weather courtesy of forecast.io.

Closest aviation weather report (METAR) to Kirkland Lake Airport

Closest report is Earlton (Timiskaming Regional) Airport, 31.3 nm (57.9 km) S. Retrieved 2020/05/30 07:34 UTC (12 minutes ago):

CYXR 300734Z AUTO 35006KT 6SM -RA BR BKN007 OVC015 10/09 A2987 RMK SLP123

Closest aviation forecast (TAF) to Kirkland Lake Airport

Forecast is more than 12 hours old.

Closest forecast is Earlton (Timiskaming Regional) Airport, 31.3 nm (57.9 km) S. Retrieved 2020/05/29 18:00 UTC (14 hours ago):

TAF CYXR 291730Z 2918/2924 36012KT P6SM FEW012 BKN040 TEMPO 2918/2924 BKN012 BECMG 2920/2922 06005KT RMK FCST BASED ON AUTO OBS NXT FCST WILL BE ISSUED AT 301145Z